Time;durP1;ratioP1;P1;durP2;ratioP2;P2;SDS_P1;SDS_P2;PMS_P1;PMS_P2;Temp;Humidity;BMP_temperature;BMP_pressure;BME280_temperature;BME280_humidity;BME280_pressure;Samples;Min_cycle;Max_cycle;Signal;HPM_P1;HPM_P2
2021/09/21 00:01:15;;;;;;;5.73;2.33;;;11.70;73.60;;;;;;4992672;28;20143;-83
2021/09/21 00:03:40;;;;;;;6.87;2.47;;;11.70;73.70;;;;;;5009071;28;20058;-83
2021/09/21 00:06:07;;;;;;;4.97;1.60;;;11.70;73.80;;;;;;4994597;28;20022;-83
2021/09/21 00:08:33;;;;;;;6.37;2.67;;;11.70;73.90;;;;;;4994320;28;20022;-83
2021/09/21 00:11:01;;;;;;;4.33;2.13;;;11.70;74.10;;;;;;5009449;28;20018;-83
2021/09/21 00:13:28;;;;;;;7.07;1.88;;;11.60;74.10;;;;;;4993019;28;20442;-83
2021/09/21 00:15:55;;;;;;;4.60;2.20;;;11.60;74.20;;;;;;4997757;28;20056;-82
2021/09/21 00:18:21;;;;;;;3.73;1.83;;;11.60;74.20;;;;;;4991550;28;20034;-82
2021/09/21 00:20:46;;;;;;;4.27;1.77;;;11.60;74.30;;;;;;4991589;28;20034;-82
2021/09/21 00:23:12;;;;;;;4.70;2.30;;;11.50;74.40;;;;;;4993320;28;20042;-82
2021/09/21 00:25:38;;;;;;;5.17;2.40;;;11.60;74.40;;;;;;4994139;28;20026;-82
2021/09/21 00:28:04;;;;;;;5.13;2.10;;;11.50;74.30;;;;;;5009202;28;20080;-81
2021/09/21 00:30:31;;;;;;;4.17;2.10;;;11.50;74.10;;;;;;4992600;28;20061;-82
2021/09/21 00:33:05;;;;;;;6.70;2.63;;;11.50;74.10;;;;;;4992690;28;20051;-81
2021/09/21 00:35:34;;;;;;;4.38;2.42;;;11.50;74.10;;;;;;4993564;28;20092;-81
2021/09/21 00:38:01;;;;;;;5.80;2.30;;;11.40;74.10;;;;;;4994140;28;20497;-82
2021/09/21 00:40:28;;;;;;;5.30;2.63;;;11.50;74.10;;;;;;5009045;28;20384;-82
2021/09/21 00:42:54;;;;;;;4.77;2.40;;;11.40;74.10;;;;;;4991651;28;20466;-83
2021/09/21 00:45:24;;;;;;;6.30;3.50;;;11.40;74.20;;;;;;5008869;28;20121;-82
2021/09/21 00:47:51;;;;;;;4.90;2.47;;;11.30;74.30;;;;;;4992487;28;20031;-82
2021/09/21 00:50:20;;;;;;;4.57;2.07;;;11.30;74.30;;;;;;4993578;28;20031;-82
2021/09/21 00:52:47;;;;;;;5.90;2.70;;;11.30;74.40;;;;;;4993574;28;20025;-83
2021/09/21 00:55:14;;;;;;;7.77;3.27;;;11.30;74.60;;;;;;4992609;28;20427;-82
2021/09/21 00:57:41;;;;;;;5.57;3.23;;;11.20;74.60;;;;;;5008694;28;20466;-82
2021/09/21 01:00:08;;;;;;;6.47;3.40;;;11.20;74.70;;;;;;5008690;28;20034;-82
2021/09/21 01:02:34;;;;;;;5.43;3.10;;;11.20;74.70;;;;;;4993152;28;20030;-82
2021/09/21 01:05:00;;;;;;;11.20;3.37;;;11.20;74.80;;;;;;4992503;28;20442;-82
2021/09/21 01:07:26;;;;;;;6.07;3.10;;;11.10;74.80;;;;;;5008629;28;20028;-82
2021/09/21 01:10:04;;;;;;;7.47;2.93;;;11.10;75.00;;;;;;4992360;28;20304;-82
2021/09/21 01:12:30;;;;;;;6.90;3.03;;;11.00;75.30;;;;;;4993396;28;20050;-82
2021/09/21 01:14:55;;;;;;;7.87;3.40;;;11.00;75.30;;;;;;4992259;28;20026;-83
2021/09/21 01:17:21;;;;;;;6.47;3.50;;;11.00;75.50;;;;;;4993712;28;20026;-82
2021/09/21 01:19:46;;;;;;;7.77;3.60;;;10.90;75.50;;;;;;4993265;28;20042;-81
2021/09/21 01:22:13;;;;;;;8.20;3.80;;;10.90;75.60;;;;;;5008688;28;20035;-81
2021/09/21 01:24:38;;;;;;;8.83;3.97;;;10.90;75.70;;;;;;4992281;28;20031;-81
2021/09/21 01:27:04;;;;;;;7.07;3.93;;;10.90;75.90;;;;;;5008057;28;20027;-81
2021/09/21 01:29:30;;;;;;;8.67;4.10;;;10.90;76.50;;;;;;4992285;28;20406;-81
2021/09/21 01:31:55;;;;;;;7.07;4.00;;;10.90;76.30;;;;;;4991809;28;20042;-81
2021/09/21 01:34:21;;;;;;;9.13;3.90;;;10.80;76.10;;;;;;4993375;28;20038;-81
2021/09/21 01:36:47;;;;;;;9.03;4.30;;;10.90;76.20;;;;;;4992160;28;20027;-81
2021/09/21 01:39:13;;;;;;;7.87;3.63;;;10.90;76.20;;;;;;5008235;28;20042;-84
2021/09/21 01:41:39;;;;;;;8.73;3.47;;;10.80;76.20;;;;;;4993065;28;20035;-84
2021/09/21 01:44:05;;;;;;;7.47;3.83;;;10.80;76.30;;;;;;5008563;28;20050;-84
2021/09/21 01:46:30;;;;;;;9.83;3.70;;;10.80;76.40;;;;;;4991977;28;20026;-82
2021/09/21 01:48:56;;;;;;;8.10;3.93;;;10.70;76.50;;;;;;4991833;28;20035;-82
2021/09/21 01:51:55;;;;;;;7.13;3.87;;;10.70;76.60;;;;;;4991967;28;20027;-82
2021/09/21 01:59:26;;;;;;;8.13;3.67;;;10.60;77.00;;;;;;4996472;28;20047;-82
2021/09/21 02:01:52;;;;;;;9.73;4.13;;;10.60;77.10;;;;;;4996841;28;20165;-82
2021/09/21 02:04:19;;;;;;;9.40;3.80;;;10.60;77.30;;;;;;5011879;28;20455;-82
2021/09/21 02:06:45;;;;;;;7.23;3.70;;;10.60;77.50;;;;;;4996708;28;20467;-83
2021/09/21 02:09:13;;;;;;;7.87;3.77;;;10.50;77.50;;;;;;4995955;28;20034;-83
2021/09/21 02:11:41;;;;;;;7.37;3.67;;;10.50;77.80;;;;;;4994989;28;20026;-83
2021/09/21 02:14:10;;;;;;;6.77;3.70;;;10.50;78.00;;;;;;5011768;28;20364;-82
2021/09/21 02:16:36;;;;;;;8.47;3.80;;;10.50;78.20;;;;;;4995475;28;20038;-81
2021/09/21 02:19:02;;;;;;;7.23;3.90;;;10.40;78.30;;;;;;4996234;28;20553;-82
2021/09/21 02:21:27;;;;;;;9.07;4.57;;;10.40;78.50;;;;;;4995438;28;20161;-82
2021/09/21 02:23:55;;;;;;;8.93;4.40;;;10.40;78.60;;;;;;4995183;28;20105;-82
2021/09/21 02:26:21;;;;;;;6.17;3.57;;;10.40;78.80;;;;;;4995212;28;20522;-82
2021/09/21 02:28:47;;;;;;;8.90;4.57;;;10.40;79.00;;;;;;4995874;28;20154;-82
2021/09/21 02:31:12;;;;;;;7.43;3.67;;;10.30;79.10;;;;;;4995042;28;20043;-82
2021/09/21 02:33:38;;;;;;;7.90;4.20;;;10.40;79.30;;;;;;4996153;28;20097;-82
2021/09/21 02:36:05;;;;;;;7.10;3.90;;;10.30;79.40;;;;;;4994870;28;20496;-82
2021/09/21 02:38:33;;;;;;;8.13;4.30;;;10.30;79.50;;;;;;4994566;28;20085;-82
2021/09/21 02:40:58;;;;;;;9.43;4.07;;;10.40;80.00;;;;;;5010848;28;20462;-82
2021/09/21 02:43:24;;;;;;;7.67;4.07;;;10.30;80.20;;;;;;5011064;28;20117;-81
2021/09/21 02:45:50;;;;;;;7.63;4.20;;;10.40;80.50;;;;;;5010983;28;20026;-82
2021/09/21 02:48:16;;;;;;;8.20;4.27;;;10.40;80.80;;;;;;4994611;28;20033;-82
2021/09/21 02:50:43;;;;;;;9.47;4.63;;;10.30;81.00;;;;;;5011420;28;20022;-81
2021/09/21 02:53:09;;;;;;;7.47;4.03;;;10.30;81.40;;;;;;5010882;28;20030;-82
2021/09/21 02:55:34;;;;;;;9.73;4.03;;;10.30;81.40;;;;;;5010405;28;20030;-81
2021/09/21 02:58:00;;;;;;;7.30;3.90;;;10.30;81.60;;;;;;4995867;28;20026;-81
2021/09/21 03:00:27;;;;;;;9.43;4.53;;;10.30;81.80;;;;;;5010379;28;20384;-81
2021/09/21 03:02:54;;;;;;;7.03;4.17;;;10.30;81.90;;;;;;4994009;28;20027;-81
2021/09/21 03:05:24;;;;;;;7.33;4.40;;;10.30;82.10;;;;;;4994091;28;20382;-81
2021/09/21 03:18:35;;;;;;;6.80;4.13;;;10.10;82.70;;;;;;4994283;28;20186;-81
2021/09/21 03:21:01;;;;;;;6.77;3.97;;;10.10;82.80;;;;;;4993466;28;20133;-82
2021/09/21 03:23:27;;;;;;;7.77;4.90;;;10.10;82.90;;;;;;4994239;28;20034;-82
2021/09/21 03:25:53;;;;;;;9.27;4.57;;;10.10;83.00;;;;;;5009815;28;20034;-82
2021/09/21 03:28:19;;;;;;;10.23;4.90;;;10.10;83.40;;;;;;5010172;28;20563;-82
2021/09/21 03:30:45;;;;;;;8.53;4.70;;;10.10;83.60;;;;;;4993247;28;20498;-81
2021/09/21 03:33:10;;;;;;;9.13;4.57;;;10.00;83.60;;;;;;4994875;28;20454;-81
2021/09/21 03:35:36;;;;;;;8.90;4.40;;;10.00;83.80;;;;;;4993293;28;20030;-81
2021/09/21 03:38:03;;;;;;;9.57;4.37;;;10.00;83.90;;;;;;4994714;28;20026;-81
2021/09/21 03:40:28;;;;;;;8.97;4.17;;;9.90;83.90;;;;;;5009718;28;20057;-81
2021/09/21 03:42:54;;;;;;;8.63;4.70;;;9.90;83.90;;;;;;4993797;28;20034;-82
2021/09/21 03:45:21;;;;;;;8.17;4.40;;;9.90;84.00;;;;;;4994037;28;20030;-82
2021/09/21 03:47:47;;;;;;;9.33;4.83;;;9.90;84.10;;;;;;5009844;28;20117;-82
2021/09/21 03:50:12;;;;;;;10.67;4.90;;;9.80;84.00;;;;;;4993488;28;20117;-82
2021/09/21 03:52:38;;;;;;;8.70;4.83;;;9.80;84.10;;;;;;4993286;28;20105;-82
2021/09/21 03:55:04;;;;;;;10.10;5.30;;;9.70;84.10;;;;;;4993290;28;20027;-82
2021/09/21 03:57:31;;;;;;;8.17;4.93;;;9.70;84.10;;;;;;4993107;28;20034;-82
2021/09/21 03:59:56;;;;;;;9.90;5.03;;;9.70;84.20;;;;;;4994425;28;20454;-82
2021/09/21 04:02:22;;;;;;;8.37;5.20;;;9.60;84.20;;;;;;4993964;28;20030;-82
2021/09/21 04:04:48;;;;;;;8.20;5.00;;;9.50;84.20;;;;;;4993073;28;20062;-83
2021/09/21 04:07:13;;;;;;;9.63;5.50;;;9.50;84.30;;;;;;4991534;28;20034;-83
2021/09/21 04:09:39;;;;;;;9.77;5.37;;;9.50;84.40;;;;;;4993765;28;20044;-83
2021/09/21 04:12:06;;;;;;;9.13;5.10;;;9.50;84.50;;;;;;4974731;28;20027;-83
2021/09/21 04:14:32;;;;;;;9.30;5.33;;;9.50;84.50;;;;;;4990936;28;20123;-82
2021/09/21 04:16:59;;;;;;;9.30;5.37;;;9.50;84.50;;;;;;4991761;28;20026;-82
2021/09/21 04:19:24;;;;;;;8.40;4.93;;;9.50;84.70;;;;;;4991963;28;20039;-82
2021/09/21 04:21:50;;;;;;;8.97;5.50;;;9.50;84.70;;;;;;4975489;28;20467;-83
2021/09/21 04:24:16;;;;;;;8.40;4.80;;;9.50;84.90;;;;;;4975906;28;20033;-82
2021/09/21 04:26:42;;;;;;;12.43;4.53;;;9.60;85.20;;;;;;4992608;28;20034;-82
2021/09/21 04:29:08;;;;;;;10.57;5.10;;;9.50;85.40;;;;;;4976187;28;20058;-81
2021/09/21 04:31:35;;;;;;;9.30;4.70;;;9.60;85.70;;;;;;4992240;28;20073;-82
2021/09/21 04:34:01;;;;;;;9.67;5.13;;;9.50;85.80;;;;;;4994004;28;20117;-81
2021/09/21 04:36:26;;;;;;;8.80;5.03;;;9.50;85.90;;;;;;4993678;28;20522;-81
2021/09/21 04:38:52;;;;;;;8.80;5.17;;;9.60;86.00;;;;;;4992569;28;20050;-81
2021/09/21 04:41:20;;;;;;;9.23;5.17;;;9.60;86.10;;;;;;4992653;28;20066;-81
2021/09/21 04:43:46;;;;;;;9.53;5.03;;;9.60;86.10;;;;;;4976402;28;20129;-82
2021/09/21 04:46:11;;;;;;;10.27;5.47;;;9.60;86.20;;;;;;4992661;28;20070;-81
2021/09/21 04:48:38;;;;;;;8.80;5.90;;;9.60;86.20;;;;;;4976489;28;20026;-82
2021/09/21 04:51:03;;;;;;;9.73;5.60;;;9.60;86.20;;;;;;4992401;28;20030;-81
2021/09/21 04:53:29;;;;;;;9.37;5.70;;;9.50;86.20;;;;;;4993806;28;20022;-81
2021/09/21 04:55:55;;;;;;;8.20;5.13;;;9.70;86.90;;;;;;4992140;28;20417;-82
2021/09/21 04:58:21;;;;;;;10.57;5.27;;;9.70;86.40;;;;;;4992571;28;20031;-81
2021/09/21 05:00:49;;;;;;;9.37;5.30;;;9.70;86.40;;;;;;4992064;28;20455;-82
2021/09/21 05:03:14;;;;;;;11.40;6.10;;;9.70;86.60;;;;;;4992295;28;20039;-82
2021/09/21 05:05:40;;;;;;;10.73;5.87;;;9.70;86.60;;;;;;4992022;28;20550;-81
2021/09/21 05:08:06;;;;;;;10.37;6.20;;;9.80;86.80;;;;;;4992090;28;20449;-82
2021/09/21 05:10:32;;;;;;;10.50;5.20;;;9.70;86.90;;;;;;4976313;28;20394;-80
2021/09/21 05:12:58;;;;;;;10.40;6.27;;;9.90;87.70;;;;;;4993407;28;20030;-81
2021/09/21 05:15:24;;;;;;;11.27;5.63;;;9.90;87.10;;;;;;4992269;28;20035;-82
2021/09/21 05:17:49;;;;;;;9.60;6.20;;;10.00;87.10;;;;;;4975811;28;20089;-81
2021/09/21 05:20:16;;;;;;;8.03;4.77;;;10.00;87.10;;;;;;4975825;28;20053;-81
2021/09/21 05:22:41;;;;;;;9.40;5.10;;;10.00;87.20;;;;;;4988726;28;20022;-80
2021/09/21 05:25:07;;;;;;;11.97;5.70;;;10.10;87.30;;;;;;5008003;28;20027;-81
2021/09/21 05:27:33;;;;;;;10.50;5.43;;;10.20;87.30;;;;;;4992932;28;20058;-80
2021/09/21 05:29:59;;;;;;;7.97;4.53;;;10.20;87.40;;;;;;5019975;28;20454;-81
2021/09/21 05:32:24;;;;;;;8.77;4.87;;;10.20;87.50;;;;;;4969094;28;20031;-80
2021/09/21 05:34:50;;;;;;;10.73;5.30;;;10.30;87.50;;;;;;5019514;28;20085;-81
2021/09/21 05:37:16;;;;;;;12.27;6.10;;;10.30;87.50;;;;;;4968468;28;20034;-80
2021/09/21 05:39:42;;;;;;;10.27;5.73;;;10.40;87.60;;;;;;4978633;28;20047;-80
2021/09/21 05:42:08;;;;;;;8.63;4.83;;;10.40;87.60;;;;;;4944635;28;20033;-80
2021/09/21 05:44:33;;;;;;;11.30;6.27;;;10.50;87.50;;;;;;4977413;28;20107;-81
2021/09/21 05:46:59;;;;;;;9.57;5.87;;;10.50;87.50;;;;;;4975946;28;20034;-81
2021/09/21 05:49:24;;;;;;;10.37;5.67;;;10.50;87.50;;;;;;4992294;28;20058;-81
2021/09/21 05:51:50;;;;;;;9.97;5.70;;;10.60;87.70;;;;;;4976965;28;20645;-81
2021/09/21 05:54:16;;;;;;;11.20;5.90;;;10.60;87.60;;;;;;4976074;28;20033;-81
2021/09/21 05:56:42;;;;;;;11.33;5.63;;;10.60;87.70;;;;;;4978677;28;20039;-83
2021/09/21 05:59:08;;;;;;;10.60;5.90;;;10.70;87.80;;;;;;4976252;28;20035;-80
2021/09/21 06:01:35;;;;;;;10.43;6.10;;;10.80;88.00;;;;;;4960195;28;20537;-82
2021/09/21 06:04:02;;;;;;;9.77;5.73;;;10.90;88.10;;;;;;4976221;28;20023;-83
2021/09/21 06:06:28;;;;;;;10.93;6.33;;;10.80;88.10;;;;;;4976807;28;20019;-83
2021/09/21 06:08:57;;;;;;;11.37;6.30;;;10.90;88.20;;;;;;4992176;28;20027;-83
2021/09/21 06:11:32;;;;;;;11.07;5.57;;;11.10;88.30;;;;;;4977879;28;20055;-83
2021/09/21 06:13:59;;;;;;;10.75;5.88;;;11.00;88.10;;;;;;4961215;28;20030;-83
2021/09/21 06:16:25;;;;;;;9.20;4.97;;;11.00;88.10;;;;;;4975970;28;20035;-83
2021/09/21 06:18:50;;;;;;;11.23;6.00;;;11.10;88.20;;;;;;4962925;28;20474;-89
2021/09/21 06:21:16;;;;;;;11.87;5.30;;;11.20;88.30;;;;;;4982320;28;20098;-88
2021/09/21 06:23:42;;;;;;;10.80;5.70;;;11.20;88.30;;;;;;5002377;28;20046;-88
2021/09/21 06:26:07;;;;;;;11.43;5.33;;;11.30;88.40;;;;;;5020753;28;20046;-87
2021/09/21 06:28:33;;;;;;;8.23;5.23;;;11.30;88.40;;;;;;5007226;28;20081;-88
2021/09/21 06:30:59;;;;;;;13.90;6.37;;;11.40;88.30;;;;;;4983614;28;20057;-88
2021/09/21 06:33:24;;;;;;;13.23;5.70;;;11.40;88.80;;;;;;5012475;28;20121;-88
2021/09/21 06:35:51;;;;;;;8.35;5.05;;;11.50;88.20;;;;;;4995808;28;20026;-87
2021/09/21 06:38:17;;;;;;;12.20;6.00;;;11.50;88.00;;;;;;4996999;28;20030;-88
2021/09/21 06:40:43;;;;;;;9.20;4.97;;;11.60;88.00;;;;;;5011196;28;20129;-88
2021/09/21 06:43:09;;;;;;;9.20;5.20;;;11.60;87.80;;;;;;4995875;28;20069;-88
2021/09/21 06:45:34;;;;;;;9.67;5.40;;;11.60;87.90;;;;;;4995898;28;20572;-87
2021/09/21 06:48:00;;;;;;;10.38;5.63;;;11.60;87.90;;;;;;4996546;28;20450;-88
2021/09/21 06:50:26;;;;;;;9.75;5.07;;;11.70;88.00;;;;;;4995912;28;20037;-88
2021/09/21 06:52:52;;;;;;;9.27;4.97;;;11.80;88.00;;;;;;4998486;28;20066;-89
2021/09/21 06:55:18;;;;;;;10.18;5.43;;;11.80;88.00;;;;;;4996824;28;20117;-89
2021/09/21 06:57:49;;;;;;;9.05;5.18;;;11.90;88.00;;;;;;4995856;28;20026;-90
2021/09/21 07:00:16;;;;;;;8.48;4.82;;;12.00;88.00;;;;;;5011492;28;20046;-90
2021/09/21 07:02:46;;;;;;;7.68;4.45;;;12.10;88.00;;;;;;5011645;28;20031;-90
2021/09/21 07:05:12;;;;;;;14.00;5.60;;;12.10;87.80;;;;;;4996179;28;20030;-89
2021/09/21 07:07:50;;;;;;;9.52;5.63;;;12.20;87.70;;;;;;5011708;28;20537;-90
2021/09/21 07:10:17;;;;;;;8.82;4.85;;;12.30;87.60;;;;;;4996460;28;20033;-90
2021/09/21 07:12:43;;;;;;;8.45;4.57;;;12.30;87.50;;;;;;5011214;28;20045;-90
2021/09/21 07:15:10;;;;;;;9.45;4.63;;;12.40;87.50;;;;;;5011652;28;20533;-89
2021/09/21 07:17:36;;;;;;;9.80;5.60;;;12.50;87.30;;;;;;5011372;28;20022;-89
2021/09/21 07:20:04;;;;;;;8.23;4.85;;;12.50;87.10;;;;;;4995209;28;20049;-90
2021/09/21 07:22:31;;;;;;;11.15;5.50;;;12.60;87.00;;;;;;5011120;28;20022;-88
2021/09/21 07:24:58;;;;;;;11.02;5.32;;;12.60;86.80;;;;;;4995456;28;20117;-88
2021/09/21 07:27:24;;;;;;;8.52;4.47;;;12.70;86.80;;;;;;4995527;28;20030;-87
2021/09/21 07:29:52;;;;;;;7.97;3.85;;;12.70;86.80;;;;;;5010958;28;20050;-88
2021/09/21 07:32:18;;;;;;;8.85;5.18;;;12.80;86.60;;;;;;4995288;28;20034;-88
2021/09/21 07:34:43;;;;;;;8.57;4.28;;;12.80;86.40;;;;;;4995061;28;20505;-87
2021/09/21 07:37:10;;;;;;;9.93;4.47;;;12.90;86.40;;;;;;4978762;28;20034;-88
2021/09/21 07:39:36;;;;;;;10.40;4.70;;;13.00;86.40;;;;;;4994725;28;20038;-88
2021/09/21 07:42:02;;;;;;;8.75;4.80;;;13.00;86.20;;;;;;5010907;28;20463;-88
2021/09/21 07:44:30;;;;;;;10.23;5.38;;;13.10;86.20;;;;;;4996177;28;20128;-88
2021/09/21 07:46:58;;;;;;;8.60;4.88;;;13.10;86.20;;;;;;5010746;28;20113;-88
2021/09/21 07:49:24;;;;;;;10.23;4.75;;;13.10;86.20;;;;;;5010696;28;20030;-88
2021/09/21 07:51:50;;;;;;;6.25;4.20;;;13.10;86.00;;;;;;5010060;28;20363;-88
2021/09/21 07:54:16;;;;;;;10.77;4.97;;;13.20;85.90;;;;;;4993949;28;20129;-88
2021/09/21 07:56:42;;;;;;;8.73;5.10;;;13.20;85.80;;;;;;5010903;28;20022;-87
2021/09/21 07:59:08;;;;;;;10.73;5.00;;;13.30;85.70;;;;;;5010911;28;20089;-89
2021/09/21 08:01:36;;;;;;;9.32;5.18;;;13.30;85.50;;;;;;4994015;28;20026;-88
2021/09/21 08:04:03;;;;;;;9.73;4.85;;;13.30;85.30;;;;;;4994950;28;20026;-87
2021/09/21 08:06:31;;;;;;;9.25;5.18;;;13.40;85.20;;;;;;4994037;28;20104;-88
2021/09/21 08:08:57;;;;;;;8.82;4.75;;;13.50;85.00;;;;;;4993975;28;20049;-88
2021/09/21 08:11:22;;;;;;;10.52;4.75;;;13.50;84.60;;;;;;4994370;28;20458;-88
2021/09/21 08:13:48;;;;;;;9.82;5.40;;;13.60;84.40;;;;;;4994959;28;20033;-88
2021/09/21 08:16:14;;;;;;;10.45;5.45;;;13.70;84.30;;;;;;5004719;28;20458;-88
2021/09/21 08:18:43;;;;;;;10.52;5.25;;;13.70;84.10;;;;;;4998038;28;20027;-88
2021/09/21 08:21:09;;;;;;;8.93;4.47;;;13.90;84.00;;;;;;4993923;28;20030;-87
2021/09/21 08:23:35;;;;;;;10.85;5.00;;;13.90;83.80;;;;;;4994259;28;20022;-88
2021/09/21 08:26:03;;;;;;;10.20;4.47;;;14.00;83.60;;;;;;4997672;28;20019;-88
2021/09/21 08:28:29;;;;;;;7.32;4.65;;;14.10;83.40;;;;;;4995306;28;20030;-88
2021/09/21 08:30:55;;;;;;;8.00;4.45;;;14.20;83.20;;;;;;4993700;28;20038;-88
2021/09/21 08:33:20;;;;;;;9.23;4.63;;;14.40;83.00;;;;;;5002011;28;20083;-88
2021/09/21 08:35:54;;;;;;;8.70;4.60;;;14.50;82.60;;;;;;5013594;28;20030;-89
2021/09/21 08:38:19;;;;;;;7.28;4.00;;;14.60;82.20;;;;;;5012829;28;20201;-88
2021/09/21 08:40:45;;;;;;;8.93;3.58;;;14.80;81.90;;;;;;5013491;28;20133;-88
2021/09/21 08:43:11;;;;;;;6.20;3.20;;;15.00;81.50;;;;;;5013407;28;20061;-89
2021/09/21 08:45:36;;;;;;;10.27;4.03;;;15.10;80.90;;;;;;5013353;28;20026;-89
2021/09/21 08:48:03;;;;;;;4.80;2.80;;;15.30;80.20;;;;;;5013269;28;20061;-89
2021/09/21 08:50:31;;;;;;;6.65;3.67;;;15.40;79.70;;;;;;5013599;28;20489;-88
2021/09/21 08:52:59;;;;;;;6.07;3.58;;;15.60;79.30;;;;;;5013425;28;20104;-89
2021/09/21 08:55:25;;;;;;;5.30;2.63;;;15.70;78.80;;;;;;4996488;28;20037;-88
2021/09/21 08:57:54;;;;;;;4.68;2.35;;;15.80;78.20;;;;;;5012891;28;20018;-89
2021/09/21 09:00:31;;;;;;;6.10;2.40;;;15.90;77.40;;;;;;4997152;28;20037;-88
2021/09/21 09:03:08;;;;;;;5.88;1.75;;;16.00;76.40;;;;;;5012807;28;20033;-89
2021/09/21 09:05:53;;;;;;;4.57;1.52;;;16.20;75.20;;;;;;5016623;28;20022;-89
2021/09/21 09:08:37;;;;;;;5.10;1.65;;;16.30;73.70;;;;;;5018452;28;20025;-89
2021/09/21 09:11:17;;;;;;;6.68;1.77;;;16.40;72.20;;;;;;5017414;28;20113;-88
2021/09/21 09:13:45;;;;;;;2.55;1.13;;;16.50;70.90;;;;;;5017121;28;20026;-89
2021/09/21 09:16:16;;;;;;;7.13;1.60;;;16.60;70.00;;;;;;5017467;28;20026;-89
2021/09/21 09:18:43;;;;;;;5.45;1.23;;;16.80;69.30;;;;;;5016894;28;20026;-89
2021/09/21 09:21:10;;;;;;;3.78;1.08;;;16.90;68.50;;;;;;5016841;28;20030;-89
2021/09/21 09:23:46;;;;;;;3.03;1.13;;;17.00;67.70;;;;;;5016588;28;20022;-89
2021/09/21 09:26:14;;;;;;;2.85;1.13;;;17.10;66.80;;;;;;5016595;28;20477;-89
2021/09/21 09:28:39;;;;;;;3.40;0.88;;;17.20;66.30;;;;;;5016802;28;20410;-89
2021/09/21 09:31:05;;;;;;;2.88;1.02;;;17.30;65.30;;;;;;5016296;28;20037;-88
2021/09/21 09:33:33;;;;;;;2.35;0.90;;;17.40;64.80;;;;;;5016035;28;20460;-88
2021/09/21 09:36:05;;;;;;;3.53;1.10;;;17.40;64.10;;;;;;5001277;28;20049;-89
2021/09/21 09:38:31;;;;;;;2.25;1.15;;;17.60;63.20;;;;;;4977110;28;20489;-88
2021/09/21 09:40:57;;;;;;;3.35;1.17;;;17.60;62.60;;;;;;4960880;28;20051;-89
2021/09/21 09:43:26;;;;;;;3.90;1.10;;;17.70;62.10;;;;;;4977031;28;20094;-88
2021/09/21 09:45:54;;;;;;;7.00;1.00;;;17.80;61.80;;;;;;4993393;28;20065;-89
2021/09/21 09:48:21;;;;;;;3.65;1.23;;;17.90;61.50;;;;;;4993485;28;20118;-89
2021/09/21 09:50:53;;;;;;;2.80;1.17;;;17.90;60.90;;;;;;4977489;28;20050;-88
2021/09/21 09:53:24;;;;;;;3.05;1.30;;;18.10;60.70;;;;;;4993675;28;20038;-88
2021/09/21 09:55:53;;;;;;;2.60;1.10;;;18.20;59.90;;;;;;4993074;28;20027;-88
2021/09/21 09:58:20;;;;;;;4.22;1.40;;;18.40;59.40;;;;;;4993074;28;20022;-89
2021/09/21 10:00:49;;;;;;;3.20;1.40;;;18.60;58.80;;;;;;4976624;28;20081;-88
2021/09/21 10:03:20;;;;;;;2.10;0.98;;;18.80;58.30;;;;;;4992612;28;20105;-88
2021/09/21 10:05:45;;;;;;;3.17;1.38;;;19.20;57.90;;;;;;4977080;28;20471;-86
2021/09/21 10:08:11;;;;;;;2.42;0.88;;;19.50;57.50;;;;;;4976970;28;20173;-86
2021/09/21 10:10:39;;;;;;;2.67;0.85;;;19.90;56.60;;;;;;4977866;28;20393;-87
2021/09/21 10:13:11;;;;;;;2.45;0.90;;;20.30;55.80;;;;;;4978056;28;20030;-87
2021/09/21 10:15:39;;;;;;;1.83;0.95;;;20.80;55.00;;;;;;4992420;28;20530;-90
2021/09/21 10:18:05;;;;;;;3.50;1.10;;;21.30;54.80;;;;;;4976395;28;20034;-87
2021/09/21 10:20:34;;;;;;;3.65;1.02;;;21.80;54.30;;;;;;4976538;28;20098;-86
2021/09/21 10:23:01;;;;;;;2.88;1.10;;;22.20;53.50;;;;;;4960850;28;20082;-86
2021/09/21 10:25:32;;;;;;;2.33;1.00;;;22.70;52.90;;;;;;4976510;28;20226;-86
2021/09/21 10:27:59;;;;;;;2.30;1.08;;;23.20;51.30;;;;;;4993063;28;20058;-87
2021/09/21 10:30:30;;;;;;;5.40;1.15;;;23.60;50.70;;;;;;4976491;28;20495;-86
2021/09/21 10:32:58;;;;;;;3.15;1.13;;;24.00;49.60;;;;;;4991814;28;20022;-87
2021/09/21 10:35:31;;;;;;;1.75;0.80;;;24.50;48.50;;;;;;4977585;28;20026;-88
2021/09/21 10:37:59;;;;;;;2.25;1.00;;;24.90;46.90;;;;;;4976312;28;20031;-87
2021/09/21 10:40:46;;;;;;;3.22;1.10;;;25.40;46.70;;;;;;4991949;28;20038;-87
2021/09/21 10:43:28;;;;;;;2.47;0.93;;;25.80;44.70;;;;;;4992140;28;20026;-86
2021/09/21 10:46:16;;;;;;;4.65;1.15;;;26.10;44.20;;;;;;4992408;28;20030;-87
2021/09/21 10:48:45;;;;;;;2.20;1.00;;;26.40;43.10;;;;;;4976502;28;20047;-88
2021/09/21 10:51:13;;;;;;;2.30;1.00;;;26.60;43.40;;;;;;4992306;28;20014;-87
2021/09/21 10:53:39;;;;;;;2.53;1.40;;;26.90;42.40;;;;;;4991749;28;20098;-86
2021/09/21 10:56:15;;;;;;;3.47;1.05;;;27.00;41.70;;;;;;4976000;28;20136;-87
2021/09/21 10:58:52;;;;;;;2.70;0.90;;;27.20;41.30;;;;;;4992095;28;20026;-86
2021/09/21 11:01:18;;;;;;;5.00;1.10;;;27.50;40.40;;;;;;4976122;28;20126;-88
2021/09/21 11:03:44;;;;;;;2.88;1.13;;;27.90;40.70;;;;;;4991661;28;20066;-87
2021/09/21 11:06:14;;;;;;;2.20;1.10;;;28.10;39.90;;;;;;4975347;28;20027;-86
2021/09/21 11:08:41;;;;;;;3.28;0.98;;;28.50;39.00;;;;;;4992133;28;20015;-87
2021/09/21 11:11:08;;;;;;;3.17;1.40;;;28.70;38.50;;;;;;4991768;28;20043;-87
2021/09/21 11:13:36;;;;;;;3.22;1.60;;;28.80;38.40;;;;;;4975129;28;20038;-87
2021/09/21 11:16:07;;;;;;;3.08;1.17;;;28.90;37.80;;;;;;4991212;28;20177;-88
2021/09/21 11:18:34;;;;;;;3.17;1.05;;;28.90;38.00;;;;;;4976642;28;20019;-87
2021/09/21 11:21:05;;;;;;;4.15;1.20;;;29.00;37.70;;;;;;4975814;28;20035;-87
2021/09/21 11:23:33;;;;;;;3.78;1.42;;;29.10;37.20;;;;;;4976706;28;20026;-86
2021/09/21 11:26:02;;;;;;;3.20;1.15;;;29.20;37.00;;;;;;4975591;28;20079;-86
2021/09/21 11:28:30;;;;;;;2.72;1.35;;;29.10;36.70;;;;;;4975940;28;20023;-88
2021/09/21 11:30:57;;;;;;;2.60;1.15;;;29.10;36.50;;;;;;4990824;28;20058;-86
2021/09/21 11:33:30;;;;;;;1.73;1.00;;;29.10;36.50;;;;;;4991043;28;20040;-86
2021/09/21 11:35:59;;;;;;;3.30;1.25;;;29.20;36.00;;;;;;4991160;28;20547;-87
2021/09/21 11:38:29;;;;;;;2.38;1.15;;;29.30;35.80;;;;;;4976041;28;20026;-87
2021/09/21 11:40:54;;;;;;;2.45;1.10;;;29.50;35.80;;;;;;4976276;28;20027;-87
2021/09/21 11:43:20;;;;;;;1.92;1.05;;;29.60;35.60;;;;;;4991134;28;20026;-86
2021/09/21 11:45:47;;;;;;;3.67;1.63;;;29.70;35.60;;;;;;4974637;28;20042;-86
2021/09/21 11:48:15;;;;;;;2.30;1.25;;;29.80;35.20;;;;;;4990651;28;20031;-88
2021/09/21 11:50:41;;;;;;;2.92;1.40;;;29.80;34.90;;;;;;4975492;28;20031;-86
2021/09/21 11:53:10;;;;;;;3.95;1.30;;;29.70;34.80;;;;;;4958247;28;20027;-85
2021/09/21 11:55:40;;;;;;;4.43;1.35;;;29.50;34.50;;;;;;4991001;28;20035;-87
2021/09/21 11:58:07;;;;;;;3.15;1.23;;;29.30;34.70;;;;;;4974441;28;20045;-86
2021/09/21 12:00:37;;;;;;;1.63;0.98;;;29.40;34.70;;;;;;4975058;28;20034;-87
2021/09/21 12:03:08;;;;;;;2.58;1.40;;;29.30;34.50;;;;;;4974544;28;20034;-87
2021/09/21 12:05:36;;;;;;;2.85;1.10;;;29.20;34.30;;;;;;4990473;28;20072;-86
2021/09/21 12:08:05;;;;;;;2.90;1.35;;;29.10;34.70;;;;;;4990115;28;20033;-86
2021/09/21 12:10:32;;;;;;;3.40;1.30;;;29.20;34.70;;;;;;4973899;28;20069;-86
2021/09/21 12:13:14;;;;;;;3.63;1.27;;;29.20;34.40;;;;;;4974546;28;20165;-85
2021/09/21 12:15:43;;;;;;;3.92;1.50;;;29.10;33.90;;;;;;4974412;28;20037;-87
2021/09/21 12:18:12;;;;;;;3.47;1.27;;;28.90;33.90;;;;;;4990499;28;20145;-86
2021/09/21 12:20:41;;;;;;;2.95;1.15;;;28.80;34.00;;;;;;4990589;28;20034;-87
2021/09/21 12:23:09;;;;;;;2.60;1.10;;;28.70;33.90;;;;;;4974676;28;20023;-86
2021/09/21 12:25:36;;;;;;;2.50;1.10;;;28.60;33.90;;;;;;4990276;28;20042;-87
2021/09/21 12:28:05;;;;;;;3.75;1.00;;;28.40;34.00;;;;;;4989892;28;20019;-85
2021/09/21 12:30:34;;;;;;;4.57;1.40;;;28.40;34.00;;;;;;4989482;28;20139;-86
2021/09/21 12:33:06;;;;;;;2.42;0.98;;;28.30;34.10;;;;;;4974383;28;20101;-86
2021/09/21 12:35:53;;;;;;;3.60;1.30;;;28.20;34.40;;;;;;4986995;28;20078;-87
2021/09/21 12:38:22;;;;;;;4.60;1.50;;;28.10;34.40;;;;;;4989639;28;20023;-85
2021/09/21 12:41:03;;;;;;;3.78;1.38;;;27.80;34.50;;;;;;4989943;28;20034;-86
2021/09/21 12:43:32;;;;;;;3.72;1.40;;;27.60;34.70;;;;;;4973935;28;20042;-87
2021/09/21 12:46:00;;;;;;;4.43;1.27;;;27.40;34.90;;;;;;4973706;28;20029;-86
2021/09/21 12:48:31;;;;;;;3.83;1.55;;;27.20;35.10;;;;;;4990499;28;20033;-86
2021/09/21 12:50:59;;;;;;;2.75;1.42;;;26.80;35.20;;;;;;4989495;28;20042;-87
2021/09/21 12:53:26;;;;;;;3.70;1.60;;;26.60;35.60;;;;;;4973760;28;20026;-86
2021/09/21 12:56:00;;;;;;;3.80;1.60;;;26.50;36.00;;;;;;4974136;28;20539;-86
2021/09/21 12:58:35;;;;;;;4.72;1.90;;;26.40;36.30;;;;;;4989554;28;20118;-85
2021/09/21 13:01:04;;;;;;;4.68;1.40;;;26.30;36.70;;;;;;4974626;28;20034;-85
2021/09/21 13:03:30;;;;;;;3.25;1.77;;;26.20;36.80;;;;;;4974584;28;20031;-86